createdAt,value
2017-09-05T00:00:31.285Z,15.68
2017-09-05T00:01:32.035Z,15.77
2017-09-05T00:02:32.754Z,15.76
2017-09-05T00:03:33.478Z,15.75
2017-09-05T00:04:34.203Z,15.77
2017-09-05T00:05:34.927Z,15.75
2017-09-05T00:06:35.651Z,15.68
2017-09-05T00:07:36.399Z,15.68
2017-09-05T00:08:37.117Z,15.65
2017-09-05T00:09:37.839Z,15.57
2017-09-05T00:10:38.565Z,15.62
2017-09-05T00:11:39.288Z,15.62
2017-09-05T00:12:40.013Z,15.52
2017-09-05T00:13:40.737Z,15.57
2017-09-05T00:14:41.460Z,15.55
2017-09-05T00:15:42.183Z,15.57
2017-09-05T00:16:42.905Z,15.62
2017-09-05T00:17:43.631Z,15.58
2017-09-05T00:18:44.353Z,15.52
2017-09-05T00:19:45.096Z,15.55
2017-09-05T00:20:45.820Z,15.59
2017-09-05T00:21:46.565Z,15.58
2017-09-05T00:22:47.292Z,15.57
2017-09-05T00:23:48.013Z,15.55
2017-09-05T00:24:48.738Z,15.52
2017-09-05T00:25:49.490Z,15.58
2017-09-05T00:26:50.185Z,15.62
2017-09-05T00:27:50.914Z,15.52
2017-09-05T00:28:51.633Z,15.54
2017-09-05T00:29:52.353Z,15.55
2017-09-05T00:30:53.081Z,15.46
2017-09-05T00:31:53.799Z,15.55
2017-09-05T00:32:54.521Z,15.46
2017-09-05T00:33:55.269Z,15.58
2017-09-05T00:34:55.989Z,15.46
2017-09-05T00:35:56.713Z,15.49
2017-09-05T00:37:58.061Z,15.46
2017-09-05T00:38:58.782Z,15.54
2017-09-05T00:39:59.501Z,15.40
2017-09-05T00:41:00.246Z,15.49
2017-09-05T00:42:00.965Z,15.44
2017-09-05T00:43:01.686Z,15.47
2017-09-05T00:44:02.410Z,15.46
2017-09-05T00:45:03.135Z,15.49
2017-09-05T00:46:03.851Z,15.46
2017-09-05T00:47:04.572Z,15.46
2017-09-05T00:48:05.294Z,15.51
2017-09-05T00:49:06.037Z,15.47
2017-09-05T00:50:06.758Z,15.49
2017-09-05T00:51:07.483Z,15.44
2017-09-05T00:52:08.204Z,15.46
2017-09-05T00:53:08.924Z,15.47
2017-09-05T00:54:09.647Z,15.51
2017-09-05T00:55:10.366Z,15.49
2017-09-05T00:56:11.088Z,15.46
2017-09-05T00:57:11.809Z,15.37
2017-09-05T00:58:12.533Z,15.40
2017-09-05T00:59:13.256Z,15.47
2017-09-05T01:00:13.976Z,15.46
2017-09-05T01:01:14.721Z,15.46
2017-09-05T01:02:15.465Z,15.42
2017-09-05T01:03:16.187Z,15.43
2017-09-05T01:04:16.908Z,15.44
2017-09-05T01:05:17.627Z,15.39
2017-09-05T01:06:18.369Z,15.39
2017-09-05T01:07:19.089Z,15.46
2017-09-05T01:08:19.812Z,15.44
2017-09-05T01:09:20.535Z,15.42
2017-09-05T01:10:21.256Z,15.47
2017-09-05T01:11:21.978Z,15.36
2017-09-05T01:12:22.723Z,15.37
2017-09-05T01:13:23.446Z,15.39
2017-09-05T01:14:24.169Z,15.42
2017-09-05T01:15:24.886Z,15.39
2017-09-05T01:16:25.606Z,15.39
2017-09-05T01:17:26.327Z,15.37
2017-09-05T01:18:27.052Z,15.37
2017-09-05T01:19:27.772Z,15.40
2017-09-05T01:20:28.497Z,15.43
2017-09-05T01:21:29.219Z,15.36
2017-09-05T01:22:29.940Z,15.36
2017-09-05T01:23:30.680Z,15.39
2017-09-05T01:24:31.400Z,15.43
2017-09-05T01:25:32.124Z,15.54
2017-09-05T01:26:32.867Z,15.39
2017-09-05T01:27:33.586Z,15.43
2017-09-05T01:28:34.307Z,15.43
2017-09-05T01:29:35.032Z,15.47
2017-09-05T01:30:35.753Z,15.47
2017-09-05T01:31:36.477Z,15.44
2017-09-05T01:32:37.196Z,15.58
2017-09-05T01:33:37.919Z,15.55
2017-09-05T01:34:38.639Z,15.52
2017-09-05T01:35:39.362Z,15.59
2017-09-05T01:36:40.080Z,15.57
2017-09-05T01:37:40.805Z,15.55
2017-09-05T01:38:41.525Z,15.54
2017-09-05T01:39:42.248Z,15.51
2017-09-05T01:40:42.968Z,15.57
2017-09-05T01:41:43.708Z,15.55
2017-09-05T01:42:44.430Z,15.54
2017-09-05T01:43:45.176Z,15.65
2017-09-05T01:44:45.892Z,15.55
2017-09-05T01:45:46.616Z,15.54
2017-09-05T01:46:47.357Z,15.54
2017-09-05T01:47:48.079Z,15.57
2017-09-05T01:48:48.801Z,15.57
2017-09-05T01:49:49.522Z,15.59
2017-09-05T01:50:50.267Z,15.52
2017-09-05T01:51:50.991Z,15.55
2017-09-05T01:52:51.713Z,15.65
2017-09-05T01:53:52.436Z,15.64
2017-09-05T01:54:53.154Z,15.62
2017-09-05T01:55:53.876Z,15.70
2017-09-05T01:56:54.600Z,15.65
2017-09-05T01:57:55.322Z,15.62
2017-09-05T01:58:56.045Z,15.64
2017-09-05T01:59:56.790Z,15.59
2017-09-05T02:00:57.512Z,15.62
2017-09-05T02:01:58.258Z,15.65
2017-09-05T02:02:58.998Z,15.61
2017-09-05T02:03:59.738Z,15.68
2017-09-05T02:05:00.459Z,15.67
2017-09-05T02:06:01.201Z,15.75
2017-09-05T02:07:01.925Z,15.65
2017-09-05T02:08:02.645Z,15.76
2017-09-05T02:09:03.365Z,15.70
2017-09-05T02:10:04.111Z,15.73
2017-09-05T02:11:04.830Z,15.79
2017-09-05T02:12:05.549Z,15.77
2017-09-05T02:13:06.290Z,15.86
2017-09-05T02:14:07.019Z,15.90
2017-09-05T02:15:07.756Z,15.91
2017-09-05T02:16:08.479Z,15.98
2017-09-05T02:17:09.217Z,15.88
2017-09-05T02:18:09.936Z,16.00
2017-09-05T02:19:10.663Z,15.97
2017-09-05T02:20:11.382Z,15.84
2017-09-05T02:21:12.106Z,15.77
2017-09-05T02:22:12.827Z,15.84
2017-09-05T02:23:13.570Z,15.76
2017-09-05T02:24:14.295Z,15.84
2017-09-05T02:25:15.026Z,15.90
2017-09-05T02:26:15.738Z,15.86
2017-09-05T02:27:16.460Z,15.86
2017-09-05T02:28:17.203Z,15.95
2017-09-05T02:29:17.926Z,15.88
2017-09-05T02:30:18.652Z,16.01
2017-09-05T02:31:19.390Z,15.94
2017-09-05T02:32:20.110Z,15.97
2017-09-05T02:33:20.832Z,15.97
2017-09-05T02:34:21.555Z,16.04
2017-09-05T02:35:22.277Z,16.00
2017-09-05T02:36:23.000Z,15.97
2017-09-05T02:37:23.747Z,16.00
2017-09-05T02:38:24.489Z,16.01
2017-09-05T02:39:25.212Z,15.98
2017-09-05T02:40:25.932Z,15.97
2017-09-05T02:41:26.677Z,15.97
2017-09-05T02:42:27.395Z,16.02
2017-09-05T02:43:28.119Z,16.01
2017-09-05T02:44:28.840Z,16.09
2017-09-05T02:45:29.560Z,16.13
2017-09-05T02:46:30.283Z,16.10
2017-09-05T02:47:31.025Z,16.09
2017-09-05T02:48:31.747Z,16.09
2017-09-05T02:49:32.469Z,16.05
2017-09-05T02:50:33.192Z,16.10
2017-09-05T02:51:33.916Z,16.13
2017-09-05T02:52:34.657Z,16.12
2017-09-05T02:53:35.375Z,16.15
2017-09-05T02:54:36.115Z,16.26
2017-09-05T02:55:36.837Z,16.21
2017-09-05T02:56:37.565Z,16.23
2017-09-05T02:57:38.284Z,16.23
2017-09-05T02:58:39.005Z,16.23
2017-09-05T02:59:39.730Z,16.21
2017-09-05T03:00:40.452Z,16.31
2017-09-05T03:01:41.172Z,16.31
2017-09-05T03:02:41.893Z,16.29
2017-09-05T03:03:42.613Z,16.29
2017-09-05T03:04:43.337Z,16.32
2017-09-05T03:05:44.082Z,16.35
2017-09-05T03:06:44.825Z,16.26
2017-09-05T03:07:45.570Z,16.29
2017-09-05T03:08:46.313Z,16.38
2017-09-05T03:09:47.060Z,16.29
2017-09-05T03:10:47.804Z,16.26
2017-09-05T03:11:48.528Z,16.31
2017-09-05T03:12:49.253Z,16.32
2017-09-05T03:13:49.971Z,16.15
2017-09-05T03:14:50.717Z,16.33
2017-09-05T03:15:51.440Z,16.33
2017-09-05T03:16:52.161Z,16.32
2017-09-05T03:17:52.882Z,16.33
2017-09-05T03:18:53.603Z,16.26
2017-09-05T03:19:54.328Z,16.29
2017-09-05T03:20:55.051Z,16.31
2017-09-05T03:21:55.775Z,16.33
2017-09-05T03:22:56.519Z,16.32
2017-09-05T03:23:57.243Z,16.36
2017-09-05T03:24:57.965Z,16.39
2017-09-05T03:25:58.691Z,16.41
2017-09-05T03:26:59.409Z,16.31
2017-09-05T03:28:00.131Z,16.28
2017-09-05T03:29:00.855Z,16.28
2017-09-05T03:30:01.578Z,16.29
2017-09-05T03:31:02.302Z,16.26
2017-09-05T03:32:03.025Z,16.31
2017-09-05T03:33:03.746Z,16.35
2017-09-05T03:34:04.468Z,16.31
2017-09-05T03:35:05.190Z,16.29
2017-09-05T03:36:05.914Z,16.31
2017-09-05T03:37:06.639Z,16.28
2017-09-05T03:38:07.357Z,16.32
2017-09-05T03:39:08.085Z,16.33
2017-09-05T03:40:08.805Z,16.29
2017-09-05T03:41:09.534Z,16.29
2017-09-05T03:42:10.274Z,16.24
2017-09-05T03:43:11.003Z,16.31
2017-09-05T03:44:11.746Z,16.26
2017-09-05T03:45:12.487Z,16.24
2017-09-05T03:46:13.212Z,16.28
2017-09-05T03:47:13.937Z,16.32
2017-09-05T03:48:14.656Z,16.31
2017-09-05T03:49:15.377Z,16.35
2017-09-05T03:50:16.103Z,16.24
2017-09-05T03:51:16.849Z,16.29
2017-09-05T03:52:17.594Z,16.33
2017-09-05T03:53:18.319Z,16.31
2017-09-05T03:54:19.038Z,16.29
2017-09-05T03:55:19.786Z,16.32
2017-09-05T03:56:20.507Z,16.26
2017-09-05T03:57:21.231Z,16.28
2017-09-05T03:58:21.954Z,16.24
2017-09-05T03:59:22.677Z,16.20
2017-09-05T04:00:23.402Z,16.23
2017-09-05T04:01:24.123Z,16.28
2017-09-05T04:02:24.845Z,16.15
2017-09-05T04:03:25.571Z,16.26
2017-09-05T04:04:26.290Z,16.17
2017-09-05T04:05:27.018Z,16.23
2017-09-05T04:06:27.760Z,16.21
2017-09-05T04:07:28.520Z,16.24
2017-09-05T04:08:29.211Z,16.20
2017-09-05T04:09:29.953Z,16.13
2017-09-05T04:10:30.699Z,16.08
2017-09-05T04:11:31.439Z,16.15
2017-09-05T04:12:32.162Z,16.24
2017-09-05T04:13:32.909Z,16.10
2017-09-05T04:14:33.654Z,16.21
2017-09-05T04:15:34.377Z,16.29
2017-09-05T04:16:35.098Z,16.24
2017-09-05T04:17:35.843Z,16.24
2017-09-05T04:18:36.569Z,16.23
2017-09-05T04:19:37.292Z,16.20
2017-09-05T04:20:38.018Z,16.20
2017-09-05T04:21:38.741Z,16.31
2017-09-05T04:22:39.481Z,16.16
2017-09-05T04:23:40.209Z,16.23
2017-09-05T04:24:40.928Z,16.33
2017-09-05T04:25:41.652Z,16.28
2017-09-05T04:26:42.371Z,16.31
2017-09-05T04:27:43.094Z,16.28
2017-09-05T04:28:43.818Z,16.32
2017-09-05T04:29:44.546Z,16.28
2017-09-05T04:30:45.268Z,16.29
2017-09-05T04:31:46.014Z,16.32
2017-09-05T04:32:46.738Z,16.32
2017-09-05T04:33:47.480Z,16.29
2017-09-05T04:34:48.223Z,16.24
2017-09-05T04:35:48.948Z,16.33
2017-09-05T04:36:49.667Z,16.28
2017-09-05T04:37:50.398Z,16.26
2017-09-05T04:38:51.137Z,16.33
2017-09-05T04:39:51.864Z,16.33
2017-09-05T04:40:52.589Z,16.28
2017-09-05T04:41:53.311Z,16.28
2017-09-05T04:42:54.054Z,16.35
2017-09-05T04:43:54.805Z,16.36
2017-09-05T04:44:55.524Z,16.31
2017-09-05T04:45:56.253Z,16.38
2017-09-05T04:46:56.976Z,16.36
2017-09-05T04:47:57.699Z,16.32
2017-09-05T04:48:58.444Z,16.28
2017-09-05T04:49:59.165Z,16.29
2017-09-05T04:50:59.892Z,16.31
2017-09-05T04:52:00.639Z,16.29
2017-09-05T04:53:01.364Z,16.32
2017-09-05T04:54:02.089Z,16.36
2017-09-05T04:55:02.812Z,16.39
2017-09-05T04:56:03.536Z,16.38
2017-09-05T04:57:04.260Z,16.36
2017-09-05T04:58:04.988Z,16.38
2017-09-05T04:59:05.714Z,16.35
2017-09-05T05:00:06.437Z,16.42
2017-09-05T05:01:07.165Z,16.41
2017-09-05T05:02:07.886Z,16.47
2017-09-05T05:03:08.611Z,16.46
2017-09-05T05:04:09.340Z,16.46
2017-09-05T05:05:10.062Z,16.41
2017-09-05T05:06:10.790Z,16.49
2017-09-05T05:07:11.516Z,16.51
2017-09-05T05:08:12.266Z,16.56
2017-09-05T05:09:12.995Z,16.51
2017-09-05T05:10:13.714Z,16.47
2017-09-05T05:11:14.443Z,16.53
2017-09-05T05:12:15.168Z,16.51
2017-09-05T05:13:15.897Z,16.49
2017-09-05T05:14:16.647Z,16.56
2017-09-05T05:15:17.371Z,16.54
2017-09-05T05:16:18.116Z,16.53
2017-09-05T05:17:18.846Z,16.54
2017-09-05T05:18:19.572Z,16.57
2017-09-05T05:19:20.297Z,16.60
2017-09-05T05:20:21.026Z,16.66
2017-09-05T05:21:21.752Z,16.64
2017-09-05T05:22:22.480Z,16.69
2017-09-05T05:23:23.203Z,16.64
2017-09-05T05:24:23.926Z,16.66
2017-09-05T05:25:24.658Z,16.57
2017-09-05T05:26:25.381Z,16.61
2017-09-05T05:27:26.132Z,16.57
2017-09-05T05:28:26.862Z,16.61
2017-09-05T05:29:27.609Z,16.60
2017-09-05T05:30:28.335Z,16.58
2017-09-05T05:31:29.060Z,16.64
2017-09-05T05:32:29.784Z,16.66
2017-09-05T05:33:30.523Z,16.72
2017-09-05T05:34:31.242Z,16.71
2017-09-05T05:35:31.977Z,16.75
2017-09-05T05:36:32.721Z,16.79
2017-09-05T05:37:33.454Z,16.76
2017-09-05T05:38:34.208Z,16.81
2017-09-05T05:39:34.925Z,16.75
2017-09-05T05:40:35.655Z,16.78
2017-09-05T05:41:36.386Z,16.79
2017-09-05T05:42:37.107Z,16.78
2017-09-05T05:43:37.834Z,16.78
2017-09-05T05:44:38.565Z,16.90
2017-09-05T05:45:39.291Z,16.96
2017-09-05T05:46:40.044Z,16.99
2017-09-05T05:47:40.771Z,17.02
2017-09-05T05:48:41.502Z,17.05
2017-09-05T05:49:42.228Z,16.97
2017-09-05T05:50:42.956Z,16.94
2017-09-05T05:51:43.685Z,16.94
2017-09-05T05:52:44.416Z,17.01
2017-09-05T05:53:45.141Z,17.02
2017-09-05T05:54:45.872Z,16.94
2017-09-05T05:55:46.601Z,17.04
2017-09-05T05:56:47.328Z,17.01
2017-09-05T05:57:48.058Z,17.14
2017-09-05T05:58:48.788Z,17.09
2017-09-05T05:59:49.540Z,17.12
2017-09-05T06:00:50.267Z,17.11
2017-09-05T06:01:50.994Z,17.11
2017-09-05T06:02:51.723Z,17.15
2017-09-05T06:03:52.449Z,17.05
2017-09-05T06:04:53.180Z,16.99
2017-09-05T06:05:53.906Z,17.19
2017-09-05T06:06:54.639Z,17.09
2017-09-05T06:07:55.365Z,17.04
2017-09-05T06:08:56.097Z,17.06
2017-09-05T06:09:56.824Z,17.09
2017-09-05T06:10:57.573Z,17.01
2017-09-05T06:11:58.303Z,16.99
2017-09-05T06:12:59.030Z,16.97
2017-09-05T06:13:59.778Z,17.09
2017-09-05T06:15:00.504Z,17.06
2017-09-05T06:16:01.232Z,16.96
2017-09-05T06:17:01.965Z,17.02
2017-09-05T06:18:02.711Z,17.19
2017-09-05T06:19:03.444Z,17.09
2017-09-05T06:20:04.192Z,17.16
2017-09-05T06:21:04.910Z,17.22
2017-09-05T06:22:05.642Z,17.24
2017-09-05T06:23:06.368Z,17.24
2017-09-05T06:24:07.097Z,17.19
2017-09-05T06:25:07.850Z,17.12
2017-09-05T06:26:08.582Z,17.24
2017-09-05T06:27:09.331Z,17.26
2017-09-05T06:28:10.080Z,17.16
2017-09-05T06:29:10.809Z,17.19
2017-09-05T06:30:11.534Z,17.14
2017-09-05T06:31:12.266Z,17.24
2017-09-05T06:32:13.015Z,17.27
2017-09-05T06:33:13.763Z,17.15
2017-09-05T06:34:14.508Z,17.16
2017-09-05T06:35:15.236Z,17.34
2017-09-05T06:36:15.963Z,17.36
2017-09-05T06:37:16.695Z,17.39
2017-09-05T06:38:17.419Z,17.39
2017-09-05T06:39:18.152Z,17.30
2017-09-05T06:40:18.881Z,17.31
2017-09-05T06:41:19.631Z,17.34
2017-09-05T06:42:20.360Z,17.42
2017-09-05T06:43:21.091Z,17.38
2017-09-05T06:44:21.818Z,17.38
2017-09-05T06:45:22.550Z,17.29
2017-09-05T06:46:23.277Z,17.39
2017-09-05T06:47:24.125Z,17.33
2017-09-05T06:48:24.863Z,17.33
2017-09-05T06:49:25.593Z,17.49
2017-09-05T06:50:26.320Z,17.51
2017-09-05T06:51:27.046Z,17.45
2017-09-05T06:52:27.774Z,17.44
2017-09-05T06:53:28.504Z,17.46
2017-09-05T06:54:29.230Z,17.49
2017-09-05T06:55:29.964Z,17.67
2017-09-05T06:56:30.716Z,17.68
2017-09-05T06:57:31.443Z,17.64
2017-09-05T06:58:32.192Z,17.70
2017-09-05T06:59:32.921Z,17.78
2017-09-05T07:00:33.652Z,17.85
2017-09-05T07:01:34.383Z,17.82
2017-09-05T07:02:35.110Z,17.79
2017-09-05T07:03:35.841Z,17.89
2017-09-05T07:04:36.588Z,17.86
2017-09-05T07:05:37.339Z,17.85
2017-09-05T07:06:38.090Z,17.72
2017-09-05T07:07:38.818Z,17.67
2017-09-05T07:08:39.548Z,17.70
2017-09-05T07:09:40.296Z,17.82
2017-09-05T07:10:41.025Z,17.80
2017-09-05T07:11:41.755Z,17.82
2017-09-05T07:12:42.485Z,17.78
2017-09-05T07:13:43.210Z,17.76
2017-09-05T07:14:43.937Z,17.71
2017-09-05T07:15:44.689Z,17.70
2017-09-05T07:16:45.416Z,17.83
2017-09-05T07:17:46.146Z,17.83
2017-09-05T07:18:46.873Z,17.79
2017-09-05T07:19:47.620Z,17.90
2017-09-05T07:20:48.356Z,17.86
2017-09-05T07:21:49.081Z,17.87
2017-09-05T07:22:49.813Z,17.94
2017-09-05T07:23:50.544Z,18.01
2017-09-05T07:24:51.273Z,18.03
2017-09-05T07:25:52.021Z,18.13
2017-09-05T07:26:52.747Z,18.10
2017-09-05T07:27:53.479Z,18.18
2017-09-05T07:28:54.210Z,18.16
2017-09-05T07:29:54.965Z,18.28
2017-09-05T07:30:55.669Z,18.13
2017-09-05T07:31:56.395Z,18.22
2017-09-05T07:32:57.122Z,18.13
2017-09-05T07:33:57.873Z,18.18
2017-09-05T07:34:58.605Z,18.15
2017-09-05T07:35:59.335Z,18.11
2017-09-05T07:37:00.088Z,18.16
2017-09-05T07:38:00.817Z,18.19
2017-09-05T07:39:01.544Z,18.18
2017-09-05T07:40:02.274Z,18.20
2017-09-05T07:41:03.009Z,18.25
2017-09-05T07:42:03.758Z,18.34
2017-09-05T07:43:04.514Z,18.40
2017-09-05T07:44:05.238Z,18.38
2017-09-05T07:45:05.969Z,18.49
2017-09-05T07:46:06.696Z,18.47
2017-09-05T07:47:07.427Z,18.60
2017-09-05T07:48:08.158Z,18.56
2017-09-05T07:49:08.887Z,18.58
2017-09-05T07:50:09.641Z,18.58
2017-09-05T07:51:10.394Z,18.73
2017-09-05T07:52:11.127Z,18.73
2017-09-05T07:53:11.855Z,18.73
2017-09-05T07:54:12.609Z,18.78
2017-09-05T07:55:13.363Z,18.89
2017-09-05T07:56:14.096Z,18.81
2017-09-05T07:57:14.824Z,18.86
2017-09-05T07:58:15.573Z,18.78
2017-09-05T07:59:16.328Z,18.89
2017-09-05T08:00:17.061Z,18.93
2017-09-05T08:01:17.810Z,18.96
2017-09-05T08:02:18.545Z,18.90
2017-09-05T08:03:19.275Z,19.00
2017-09-05T08:04:20.004Z,18.99
2017-09-05T08:05:22.746Z,19.11
2017-09-05T08:06:23.477Z,19.29
2017-09-05T08:07:24.213Z,19.16
2017-09-05T08:08:24.944Z,19.36
2017-09-05T08:09:25.694Z,19.31
2017-09-05T08:10:26.450Z,19.39
2017-09-05T08:11:27.186Z,19.54
2017-09-05T08:12:27.916Z,19.69
2017-09-05T08:13:28.650Z,19.89
2017-09-05T08:14:29.407Z,20.32
2017-09-05T08:15:30.146Z,20.67
2017-09-05T08:16:30.881Z,21.00
2017-09-05T08:17:31.635Z,21.54
2017-09-05T08:18:32.375Z,21.87
2017-09-05T08:19:33.117Z,21.83
2017-09-05T08:20:33.854Z,21.99
2017-09-05T08:21:34.596Z,21.91
2017-09-05T08:22:35.357Z,21.82
2017-09-05T08:23:36.098Z,22.20
2017-09-05T08:24:36.845Z,22.14
2017-09-05T08:25:37.587Z,22.22
2017-09-05T08:26:38.357Z,22.26
2017-09-05T08:27:39.093Z,22.57
2017-09-05T08:28:39.841Z,22.72
2017-09-05T08:29:40.586Z,23.13
2017-09-05T08:30:41.326Z,22.88
2017-09-05T08:31:42.067Z,22.60
2017-09-05T08:32:42.804Z,22.47
2017-09-05T08:33:43.568Z,22.81
2017-09-05T08:34:44.329Z,22.93
2017-09-05T08:35:45.068Z,23.09
2017-09-05T08:36:45.808Z,22.57
2017-09-05T08:37:46.545Z,21.96
2017-09-05T08:38:47.303Z,21.77
2017-09-05T08:39:48.062Z,21.72
2017-09-05T08:40:48.801Z,21.61
2017-09-05T08:41:49.536Z,21.61
2017-09-05T08:42:50.272Z,21.48
2017-09-05T08:43:51.027Z,21.50
2017-09-05T08:44:51.773Z,21.69
2017-09-05T08:45:52.510Z,22.04
2017-09-05T08:46:53.249Z,22.41
2017-09-05T08:47:53.989Z,23.02
2017-09-05T08:48:54.727Z,23.39
2017-09-05T08:49:55.469Z,23.81
2017-09-05T08:50:56.212Z,23.58
2017-09-05T08:51:56.949Z,23.44
2017-09-05T08:52:57.689Z,23.23
2017-09-05T08:53:58.426Z,22.87
2017-09-05T08:54:59.170Z,22.91
2017-09-05T08:55:59.909Z,23.18
2017-09-05T08:57:00.680Z,23.27
2017-09-05T08:58:01.390Z,23.36
2017-09-05T08:59:02.156Z,23.54
2017-09-05T09:00:02.896Z,23.91
2017-09-05T09:01:03.638Z,24.16
2017-09-05T09:02:04.380Z,24.42
2017-09-05T09:03:05.123Z,24.35
2017-09-05T09:04:05.886Z,24.51
2017-09-05T09:05:06.633Z,24.61
2017-09-05T09:06:07.374Z,24.85
2017-09-05T09:07:08.116Z,25.18
2017-09-05T09:08:08.859Z,24.60
2017-09-05T09:09:09.616Z,24.20
2017-09-05T09:10:10.373Z,23.99
2017-09-05T09:11:11.117Z,23.63
2017-09-05T09:12:11.857Z,23.40
2017-09-05T09:13:12.600Z,23.43
2017-09-05T09:14:13.335Z,23.13
2017-09-05T09:15:14.074Z,23.18
2017-09-05T09:16:14.833Z,23.28
2017-09-05T09:17:15.574Z,22.96
2017-09-05T09:18:16.313Z,23.15
2017-09-05T09:19:17.074Z,22.91
2017-09-05T09:20:17.809Z,23.20
2017-09-05T09:21:18.552Z,23.55
2017-09-05T09:22:19.286Z,23.80
2017-09-05T09:23:20.035Z,23.80
2017-09-05T09:24:20.763Z,23.80
2017-09-05T09:25:21.531Z,23.76
2017-09-05T09:26:22.290Z,24.06
2017-09-05T09:27:23.027Z,23.92
2017-09-05T09:28:23.768Z,23.99
2017-09-05T09:29:24.505Z,24.03
2017-09-05T09:30:25.246Z,24.08
2017-09-05T09:31:25.988Z,24.16
2017-09-05T09:32:26.728Z,23.92
2017-09-05T09:33:27.486Z,24.24
2017-09-05T09:34:28.228Z,24.36
2017-09-05T09:35:28.971Z,24.61
2017-09-05T09:36:29.710Z,24.53
2017-09-05T09:37:30.452Z,24.43
2017-09-05T09:38:31.212Z,24.47
2017-09-05T09:39:31.970Z,24.53
2017-09-05T09:40:32.717Z,24.69
2017-09-05T09:41:33.477Z,24.61
2017-09-05T09:42:34.219Z,24.57
2017-09-05T09:43:34.984Z,24.73
2017-09-05T09:44:35.722Z,24.86
2017-09-05T09:45:36.463Z,25.18
2017-09-05T09:46:37.205Z,25.16
2017-09-05T09:47:37.944Z,25.23
2017-09-05T09:48:38.684Z,24.89
2017-09-05T09:49:39.427Z,25.32
2017-09-05T09:50:40.170Z,25.47
2017-09-05T09:51:40.908Z,26.00
2017-09-05T09:52:41.675Z,26.68
2017-09-05T09:53:42.414Z,26.41
2017-09-05T09:54:43.162Z,26.60
2017-09-05T09:55:43.903Z,26.56
2017-09-05T09:56:44.666Z,26.15
2017-09-05T09:57:45.407Z,25.88
2017-09-05T09:58:46.147Z,25.80
2017-09-05T09:59:46.891Z,25.85
2017-09-05T10:00:47.632Z,25.70
2017-09-05T10:01:48.397Z,25.62
2017-09-05T10:02:49.142Z,25.81
2017-09-05T10:03:49.883Z,26.25
2017-09-05T10:04:50.623Z,26.06
2017-09-05T10:05:51.377Z,26.10
2017-09-05T10:06:52.109Z,26.26
2017-09-05T10:07:52.847Z,25.66
2017-09-05T10:08:53.583Z,25.59
2017-09-05T10:09:54.353Z,25.62
2017-09-05T10:10:55.088Z,26.19
2017-09-05T10:11:55.829Z,26.02
2017-09-05T10:12:56.573Z,26.34
2017-09-05T10:13:57.315Z,26.56
2017-09-05T10:14:58.060Z,26.68
2017-09-05T10:15:58.801Z,26.55
2017-09-05T10:16:59.539Z,26.03
2017-09-05T10:18:00.285Z,26.07
2017-09-05T10:19:01.026Z,25.83
2017-09-05T10:20:01.767Z,25.91
2017-09-05T10:21:02.508Z,26.02
2017-09-05T10:22:03.251Z,26.18
2017-09-05T10:23:03.991Z,26.68
2017-09-05T10:24:04.728Z,26.77
2017-09-05T10:25:05.474Z,26.90
2017-09-05T10:26:06.215Z,26.99
2017-09-05T10:27:06.961Z,27.30
2017-09-05T10:28:07.703Z,27.70
2017-09-05T10:29:08.447Z,27.64
2017-09-05T10:30:09.191Z,27.21
2017-09-05T10:31:09.928Z,26.81
2017-09-05T10:32:10.674Z,26.71
2017-09-05T10:33:11.412Z,26.21
2017-09-05T10:34:12.148Z,26.05
2017-09-05T10:35:12.891Z,25.91
2017-09-05T10:36:13.628Z,25.91
2017-09-05T10:37:14.366Z,26.40
2017-09-05T10:38:15.105Z,26.47
2017-09-05T10:39:15.844Z,26.18
2017-09-05T10:40:16.600Z,25.81
2017-09-05T10:41:17.337Z,25.78
2017-09-05T10:42:18.073Z,25.53
2017-09-05T10:43:18.811Z,25.40
2017-09-05T10:44:19.548Z,25.04
2017-09-05T10:45:20.284Z,25.03
2017-09-05T10:46:21.040Z,24.92
2017-09-05T10:47:21.778Z,24.89
2017-09-05T10:48:22.516Z,24.96
2017-09-05T10:49:23.250Z,24.77
2017-09-05T10:50:23.987Z,24.84
2017-09-05T10:51:24.724Z,24.77
2017-09-05T10:52:25.476Z,24.40
2017-09-05T10:53:26.212Z,24.39
2017-09-05T10:54:26.949Z,24.86
2017-09-05T10:55:27.690Z,24.98
2017-09-05T10:56:28.444Z,25.04
2017-09-05T10:57:29.179Z,25.13
2017-09-05T10:58:29.935Z,25.23
2017-09-05T10:59:30.676Z,25.13
2017-09-05T11:00:31.415Z,25.08
2017-09-05T11:01:32.148Z,25.31
2017-09-05T11:02:32.888Z,25.70
2017-09-05T11:03:33.627Z,25.88
2017-09-05T11:04:34.370Z,26.55
2017-09-05T11:05:35.106Z,26.90
2017-09-05T11:06:35.848Z,26.74
2017-09-05T11:07:36.588Z,26.99
2017-09-05T11:08:37.329Z,27.03
2017-09-05T11:09:38.089Z,27.10
2017-09-05T11:10:38.830Z,27.05
2017-09-05T11:11:39.590Z,27.35
2017-09-05T11:12:40.350Z,27.49
2017-09-05T11:13:41.094Z,27.65
2017-09-05T11:14:41.836Z,27.75
2017-09-05T11:15:42.577Z,27.73
2017-09-05T11:16:43.321Z,27.67
2017-09-05T11:17:44.059Z,27.32
2017-09-05T11:18:44.803Z,27.27
2017-09-05T11:19:45.538Z,27.08
2017-09-05T11:20:46.280Z,27.54
2017-09-05T11:21:47.022Z,27.71
2017-09-05T11:22:47.765Z,27.49
2017-09-05T11:23:48.509Z,27.63
2017-09-05T11:24:49.250Z,27.48
2017-09-05T11:25:49.989Z,28.05
2017-09-05T11:26:50.734Z,28.00
2017-09-05T11:27:51.478Z,28.41
2017-09-05T11:28:52.219Z,28.70
2017-09-05T11:29:52.968Z,29.10
2017-09-05T11:30:53.715Z,29.23
2017-09-05T11:31:54.462Z,29.76
2017-09-05T11:32:55.209Z,30.05
2017-09-05T11:33:55.960Z,30.43
2017-09-05T11:34:56.713Z,30.48
2017-09-05T11:35:57.487Z,30.39
2017-09-05T11:36:58.245Z,30.81
2017-09-05T11:37:59.012Z,30.90
2017-09-05T11:38:59.760Z,30.77
2017-09-05T11:40:00.506Z,30.51
2017-09-05T11:41:01.259Z,28.98
2017-09-05T11:42:02.009Z,28.97
2017-09-05T11:43:02.778Z,28.48
2017-09-05T11:44:03.525Z,27.77
2017-09-05T11:45:04.265Z,27.44
2017-09-05T11:46:05.000Z,27.33
2017-09-05T11:47:05.738Z,27.05
2017-09-05T11:48:06.477Z,26.73
2017-09-05T11:49:07.212Z,26.22
2017-09-05T11:50:07.974Z,26.15
2017-09-05T11:51:08.713Z,25.99
2017-09-05T11:52:09.452Z,26.09
2017-09-05T11:53:10.193Z,26.10
2017-09-05T11:54:10.933Z,26.31
2017-09-05T11:55:11.673Z,26.41
2017-09-05T11:56:12.412Z,26.63
2017-09-05T11:57:13.177Z,26.99
2017-09-05T11:58:13.916Z,27.17
2017-09-05T11:59:14.660Z,27.44
2017-09-05T12:00:15.398Z,27.75
2017-09-05T12:01:16.139Z,27.80
2017-09-05T12:02:16.880Z,27.68
2017-09-05T12:03:17.623Z,27.90
2017-09-05T12:04:18.380Z,27.68
2017-09-05T12:05:19.121Z,27.77
2017-09-05T12:06:19.855Z,27.36
2017-09-05T12:07:20.593Z,27.27
2017-09-05T12:08:21.347Z,26.99
2017-09-05T12:09:22.086Z,26.70
2017-09-05T12:10:22.847Z,26.59
2017-09-05T12:11:23.600Z,26.31
2017-09-05T12:12:24.338Z,25.81
2017-09-05T12:13:25.076Z,25.65
2017-09-05T12:14:25.809Z,25.44
2017-09-05T12:15:26.548Z,25.40
2017-09-05T12:16:27.296Z,25.38
2017-09-05T12:17:28.037Z,25.16
2017-09-05T12:18:28.791Z,25.14
2017-09-05T12:19:29.541Z,25.04
2017-09-05T12:20:30.295Z,24.99
2017-09-05T12:21:31.093Z,24.89
2017-09-05T12:22:31.835Z,24.73
2017-09-05T12:25:33.847Z,24.55
2017-09-05T12:28:35.860Z,24.70
2017-09-05T12:29:36.600Z,24.61
2017-09-05T12:30:37.335Z,24.84
2017-09-05T12:31:38.081Z,24.76
2017-09-05T12:38:42.666Z,24.74
2017-09-05T12:39:43.404Z,25.03
2017-09-05T12:40:44.144Z,25.17
2017-09-05T12:41:44.907Z,25.40
2017-09-05T12:42:45.644Z,25.83
2017-09-05T12:43:46.385Z,25.99
2017-09-05T12:44:47.124Z,25.96
2017-09-05T12:45:47.875Z,26.05
2017-09-05T12:46:48.620Z,26.28
2017-09-05T12:47:49.356Z,26.13
2017-09-05T12:48:50.097Z,26.31
2017-09-05T12:49:50.854Z,26.09
2017-09-05T12:50:51.593Z,25.98
2017-09-05T12:51:52.329Z,26.07
2017-09-05T12:52:53.064Z,26.16
2017-09-05T12:53:53.826Z,26.05
2017-09-05T12:54:54.558Z,25.81
2017-09-05T12:55:55.295Z,25.81
2017-09-05T12:56:56.055Z,25.81
2017-09-05T12:57:56.792Z,25.51
2017-09-05T12:58:57.549Z,25.25
2017-09-05T12:59:58.283Z,25.25
2017-09-05T13:00:59.022Z,25.22
2017-09-05T13:01:59.759Z,25.29
2017-09-05T13:03:00.496Z,25.43
2017-09-05T13:04:01.257Z,25.25
2017-09-05T13:05:01.996Z,25.16
2017-09-05T13:06:02.724Z,25.25
2017-09-05T13:07:03.458Z,25.07
2017-09-05T13:08:04.195Z,25.16
2017-09-05T13:09:04.930Z,25.17
2017-09-05T13:10:05.666Z,25.13
2017-09-05T13:11:06.405Z,25.14
2017-09-05T13:12:07.141Z,25.06
2017-09-05T13:13:07.882Z,24.89